QTR429 OBBI-OEJN
Flight info
| Callsign | QTR429 |
|---|---|
| Flight time | N/A |
| Altitude | 40000 |
| Route | BHR B457 NARMI N112 GETOT Q212 KSA G782 VEMEM |
| Aircraft | A346/H-SDE2E3FGHIJ3J4J5M1RWXY/LB1D1 |
Departure
| Time | 2026-05-08 10:20 |
|---|---|
| Airport | Bahrain International Airport (OBBI) |
Arrival
| Time | N/A |
|---|---|
| Airport | King Abdulaziz International Airport (OEJN) |
| Time | Latitude | Longitude | Altitude | Speed | Heading |
|---|---|---|---|---|---|
| 2026-05-08 09:52 | 26.26817 | 50.63087 | 28 ft | 0 kts | 212° |
| 2026-05-08 10:09 | 26.26820 | 50.63089 | 28 ft | 3 kts | 211° |
| 2026-05-08 10:09 | 26.26836 | 50.63097 | 26 ft | 3 kts | 195° |
| 2026-05-08 10:09 | 26.26855 | 50.63103 | 26 ft | 3 kts | 199° |
| 2026-05-08 10:10 | 26.26872 | 50.63109 | 25 ft | 3 kts | 191° |
| 2026-05-08 10:10 | 26.26888 | 50.63110 | 27 ft | 3 kts | 169° |
| 2026-05-08 10:10 | 26.26902 | 50.63104 | 25 ft | 3 kts | 144° |
| 2026-05-08 10:10 | 26.26915 | 50.63090 | 27 ft | 3 kts | 127° |
| 2026-05-08 10:11 | 26.26926 | 50.63072 | 25 ft | 3 kts | 122° |
| 2026-05-08 10:11 | 26.26930 | 50.63066 | 26 ft | 0 kts | 122° |
| 2026-05-08 10:15 | 26.26921 | 50.63084 | 28 ft | 7 kts | 114° |
| 2026-05-08 10:15 | 26.26922 | 50.63134 | 28 ft | 9 kts | 63° |
| 2026-05-08 10:15 | 26.26952 | 50.63209 | 27 ft | 15 kts | 92° |
| 2026-05-08 10:16 | 26.26898 | 50.63329 | 27 ft | 19 kts | 122° |
| 2026-05-08 10:16 | 26.26820 | 50.63466 | 27 ft | 22 kts | 123° |
| 2026-05-08 10:16 | 26.26731 | 50.63619 | 28 ft | 25 kts | 123° |
| 2026-05-08 10:16 | 26.26634 | 50.63787 | 28 ft | 27 kts | 123° |
| 2026-05-08 10:17 | 26.26530 | 50.63967 | 28 ft | 28 kts | 123° |
| 2026-05-08 10:17 | 26.26437 | 50.64130 | 27 ft | 26 kts | 123° |
| 2026-05-08 10:17 | 26.26335 | 50.64304 | 27 ft | 28 kts | 123° |
| 2026-05-08 10:17 | 26.26228 | 50.64491 | 27 ft | 29 kts | 123° |
| 2026-05-08 10:18 | 26.26114 | 50.64688 | 27 ft | 31 kts | 123° |
| 2026-05-08 10:18 | 26.26024 | 50.64867 | 28 ft | 20 kts | 99° |
| 2026-05-08 10:18 | 26.26068 | 50.64979 | 29 ft | 12 kts | 35° |
| 2026-05-08 10:18 | 26.26128 | 50.64998 | 30 ft | 7 kts | 344° |
| 2026-05-08 10:19 | 26.26167 | 50.64954 | 30 ft | 0 kts | 303° |
| 2026-05-08 10:19 | 26.26182 | 50.64929 | 29 ft | 22 kts | 304° |
| 2026-05-08 10:19 | 26.26417 | 50.64521 | 27 ft | 100 kts | 303° |
| 2026-05-08 10:20 | 26.27574 | 50.62510 | 477 ft | 182 kts | 304° |
| 2026-05-08 10:20 | 26.28270 | 50.61303 | 1232 ft | 185 kts | 309° |
| 2026-05-08 10:20 | 26.28945 | 50.60120 | 2158 ft | 177 kts | 309° |
| 2026-05-08 10:20 | 26.29604 | 50.58967 | 2773 ft | 177 kts | 309° |
| 2026-05-08 10:21 | 26.30082 | 50.57682 | 3318 ft | 189 kts | 283° |
| 2026-05-08 10:21 | 26.30123 | 50.56156 | 3710 ft | 205 kts | 274° |
| 2026-05-08 10:21 | 26.30077 | 50.54504 | 4067 ft | 221 kts | 272° |
| 2026-05-08 10:21 | 26.30032 | 50.52711 | 4358 ft | 239 kts | 272° |
| 2026-05-08 10:22 | 26.30007 | 50.50780 | 4726 ft | 258 kts | 272° |
| 2026-05-08 10:22 | 26.30000 | 50.48715 | 5185 ft | 273 kts | 272° |
| 2026-05-08 10:22 | 26.30004 | 50.46555 | 5877 ft | 278 kts | 272° |
| 2026-05-08 10:22 | 26.30014 | 50.44383 | 6639 ft | 281 kts | 270° |
| 2026-05-08 10:23 | 26.30024 | 50.42191 | 7438 ft | 283 kts | 269° |
| 2026-05-08 10:23 | 26.30037 | 50.40008 | 8371 ft | 280 kts | 268° |
| 2026-05-08 10:23 | 26.30045 | 50.37839 | 9298 ft | 280 kts | 268° |
| 2026-05-08 10:23 | 26.30054 | 50.35637 | 10094 ft | 284 kts | 268° |
| 2026-05-08 10:24 | 26.30110 | 50.33381 | 10626 ft | 299 kts | 271° |
| 2026-05-08 10:24 | 26.30306 | 50.30998 | 11018 ft | 318 kts | 276° |
| 2026-05-08 10:24 | 26.30642 | 50.28486 | 11400 ft | 336 kts | 277° |
| 2026-05-08 10:24 | 26.31020 | 50.25839 | 11769 ft | 355 kts | 277° |
| 2026-05-08 10:25 | 26.31422 | 50.23035 | 12118 ft | 373 kts | 277° |
| 2026-05-08 10:25 | 26.31826 | 50.20112 | 12534 ft | 388 kts | 276° |
| 2026-05-08 10:25 | 26.32100 | 50.17095 | 13225 ft | 393 kts | 272° |
| 2026-05-08 10:25 | 26.32209 | 50.14025 | 13932 ft | 398 kts | 268° |
| 2026-05-08 10:26 | 26.32166 | 50.10921 | 14639 ft | 402 kts | 267° |
| 2026-05-08 10:26 | 26.32107 | 50.07791 | 15395 ft | 405 kts | 267° |
| 2026-05-08 10:26 | 26.32040 | 50.04634 | 16162 ft | 408 kts | 266° |
| 2026-05-08 10:26 | 26.31968 | 50.01460 | 16918 ft | 411 kts | 266° |
| 2026-05-08 10:27 | 26.31898 | 49.98304 | 17650 ft | 415 kts | 266° |
| 2026-05-08 10:27 | 26.31826 | 49.95032 | 18386 ft | 418 kts | 266° |
| 2026-05-08 10:27 | 26.31756 | 49.91824 | 19043 ft | 421 kts | 266° |
| 2026-05-08 10:27 | 26.31681 | 49.88503 | 19705 ft | 424 kts | 266° |
| 2026-05-08 10:28 | 26.31609 | 49.85255 | 20392 ft | 425 kts | 266° |
| 2026-05-08 10:28 | 26.31532 | 49.81887 | 21084 ft | 427 kts | 266° |
| 2026-05-08 10:28 | 26.31455 | 49.78565 | 21725 ft | 430 kts | 266° |
| 2026-05-08 10:28 | 26.31378 | 49.75255 | 22345 ft | 433 kts | 266° |
| 2026-05-08 10:29 | 26.31299 | 49.71883 | 22958 ft | 436 kts | 266° |
| 2026-05-08 10:29 | 26.31218 | 49.68481 | 23536 ft | 440 kts | 266° |
| 2026-05-08 10:29 | 26.31138 | 49.65053 | 24042 ft | 443 kts | 266° |
| 2026-05-08 10:29 | 26.31057 | 49.61612 | 24585 ft | 444 kts | 265° |
| 2026-05-08 10:30 | 26.30975 | 49.58161 | 25144 ft | 446 kts | 265° |
| 2026-05-08 10:30 | 26.30892 | 49.54696 | 25699 ft | 447 kts | 265° |
| 2026-05-08 10:30 | 26.30807 | 49.51222 | 26238 ft | 449 kts | 265° |
| 2026-05-08 10:30 | 26.30719 | 49.47732 | 26759 ft | 451 kts | 265° |
| 2026-05-08 10:31 | 26.30629 | 49.44207 | 27309 ft | 452 kts | 264° |
| 2026-05-08 10:31 | 26.30538 | 49.40695 | 27841 ft | 454 kts | 264° |
| 2026-05-08 10:31 | 26.30444 | 49.37149 | 28359 ft | 455 kts | 264° |
| 2026-05-08 10:31 | 26.30353 | 49.33634 | 29049 ft | 452 kts | 264° |
| 2026-05-08 10:32 | 26.30262 | 49.30147 | 29833 ft | 447 kts | 264° |
| 2026-05-08 10:32 | 26.30173 | 49.26698 | 30457 ft | 443 kts | 264° |
| 2026-05-08 10:32 | 26.30082 | 49.23258 | 31016 ft | 440 kts | 263° |
| 2026-05-08 10:32 | 26.29990 | 49.19855 | 31552 ft | 438 kts | 263° |
| 2026-05-08 10:33 | 26.29897 | 49.16468 | 32145 ft | 435 kts | 263° |
| 2026-05-08 10:33 | 26.29804 | 49.13104 | 32783 ft | 432 kts | 262° |
| 2026-05-08 10:33 | 26.29680 | 49.09780 | 33444 ft | 427 kts | 260° |
| 2026-05-08 10:33 | 26.29448 | 49.06500 | 34078 ft | 422 kts | 259° |
| 2026-05-08 10:34 | 26.29202 | 49.03246 | 34604 ft | 419 kts | 259° |
| 2026-05-08 10:34 | 26.28956 | 49.00013 | 35118 ft | 417 kts | 259° |
| 2026-05-08 10:34 | 26.28709 | 48.96801 | 35597 ft | 416 kts | 258° |
| 2026-05-08 10:34 | 26.28462 | 48.93591 | 36072 ft | 414 kts | 258° |
| 2026-05-08 10:35 | 26.28215 | 48.90390 | 36520 ft | 413 kts | 258° |
| 2026-05-08 10:35 | 26.27969 | 48.87202 | 36968 ft | 412 kts | 258° |
| 2026-05-08 10:35 | 26.27723 | 48.84021 | 37409 ft | 411 kts | 258° |
| 2026-05-08 10:35 | 26.27476 | 48.80848 | 37834 ft | 409 kts | 258° |
| 2026-05-08 10:36 | 26.27231 | 48.77691 | 38240 ft | 408 kts | 258° |
| 2026-05-08 10:36 | 26.26984 | 48.74532 | 38557 ft | 409 kts | 258° |
| 2026-05-08 10:36 | 26.26735 | 48.71372 | 38795 ft | 410 kts | 258° |
| 2026-05-08 10:36 | 26.26484 | 48.68198 | 39016 ft | 411 kts | 258° |
| 2026-05-08 10:37 | 26.26233 | 48.65022 | 39241 ft | 412 kts | 258° |
| 2026-05-08 10:37 | 26.25979 | 48.61838 | 39453 ft | 412 kts | 257° |
| 2026-05-08 10:37 | 26.25630 | 48.58675 | 39674 ft | 410 kts | 255° |
| 2026-05-08 10:37 | 26.25150 | 48.55546 | 39873 ft | 409 kts | 252° |
| 2026-05-08 10:38 | 26.24543 | 48.52448 | 39910 ft | 408 kts | 250° |
| 2026-05-08 10:38 | 26.22962 | 48.46400 | 39927 ft | 405 kts | 246° |
| 2026-05-08 10:39 | 26.20911 | 48.40586 | 39935 ft | 401 kts | 241° |
| 2026-05-08 10:39 | 26.18609 | 48.34979 | 39936 ft | 400 kts | 241° |
| 2026-05-08 10:40 | 26.16281 | 48.29338 | 39941 ft | 400 kts | 241° |
| 2026-05-08 10:40 | 26.13914 | 48.23731 | 39940 ft | 399 kts | 239° |
| 2026-05-08 10:41 | 26.11199 | 48.18347 | 39944 ft | 397 kts | 235° |
| 2026-05-08 10:41 | 26.08080 | 48.13266 | 39952 ft | 396 kts | 231° |
| 2026-05-08 10:42 | 26.04637 | 48.08493 | 39953 ft | 395 kts | 229° |
| 2026-05-08 10:42 | 26.01149 | 48.03750 | 39951 ft | 395 kts | 229° |
| 2026-05-08 10:43 | 25.99298 | 48.01244 | 39956 ft | 395 kts | 229° |
| 2026-05-08 10:43 | 25.96398 | 47.97331 | 39953 ft | 394 kts | 229° |
| 2026-05-08 10:44 | 25.92905 | 47.92629 | 39954 ft | 394 kts | 229° |
| 2026-05-08 10:44 | 25.89412 | 47.87934 | 39960 ft | 394 kts | 229° |
| 2026-05-08 10:45 | 25.85906 | 47.83229 | 39960 ft | 394 kts | 229° |
| 2026-05-08 10:45 | 25.82404 | 47.78541 | 39967 ft | 394 kts | 229° |
| 2026-05-08 10:46 | 25.78899 | 47.73849 | 39957 ft | 395 kts | 228° |
| 2026-05-08 10:46 | 25.75380 | 47.69144 | 39970 ft | 396 kts | 228° |
| 2026-05-08 10:47 | 25.71859 | 47.64441 | 39968 ft | 396 kts | 228° |
| 2026-05-08 10:47 | 25.68337 | 47.59736 | 39968 ft | 396 kts | 228° |
| 2026-05-08 10:48 | 25.64823 | 47.55038 | 39978 ft | 395 kts | 228° |
| 2026-05-08 10:48 | 25.61314 | 47.50353 | 39977 ft | 395 kts | 228° |
| 2026-05-08 10:49 | 25.57794 | 47.45675 | 39979 ft | 395 kts | 228° |
| 2026-05-08 10:49 | 25.54272 | 47.41000 | 39978 ft | 395 kts | 228° |
| 2026-05-08 10:50 | 25.50751 | 47.36328 | 39984 ft | 395 kts | 228° |
| 2026-05-08 10:50 | 25.47230 | 47.31659 | 39984 ft | 395 kts | 228° |
| 2026-05-08 10:51 | 25.43708 | 47.26993 | 39987 ft | 395 kts | 228° |
| 2026-05-08 10:51 | 25.40208 | 47.22362 | 39987 ft | 395 kts | 228° |
| 2026-05-08 10:52 | 25.36681 | 47.17699 | 39987 ft | 396 kts | 228° |
| 2026-05-08 10:52 | 25.33139 | 47.13022 | 39999 ft | 397 kts | 228° |
| 2026-05-08 10:53 | 25.29594 | 47.08342 | 40000 ft | 397 kts | 228° |
| 2026-05-08 10:53 | 25.26047 | 47.03667 | 39998 ft | 397 kts | 228° |
| 2026-05-08 10:54 | 25.22499 | 46.98994 | 39998 ft | 397 kts | 228° |
| 2026-05-08 10:54 | 25.18949 | 46.94338 | 40014 ft | 394 kts | 230° |
| 2026-05-08 10:55 | 25.15431 | 46.89694 | 40003 ft | 394 kts | 230° |
| 2026-05-08 10:55 | 25.11911 | 46.85061 | 39999 ft | 393 kts | 230° |
| 2026-05-08 10:56 | 25.08388 | 46.80436 | 40001 ft | 393 kts | 230° |
| 2026-05-08 10:56 | 25.04863 | 46.75815 | 40001 ft | 393 kts | 230° |
| 2026-05-08 10:57 | 25.01334 | 46.71195 | 40001 ft | 393 kts | 230° |
| 2026-05-08 10:57 | 24.96386 | 46.63976 | 40001 ft | 394 kts | 235° |
| 2026-05-08 10:58 | 24.90144 | 46.53308 | 39998 ft | 397 kts | 236° |
| 2026-05-08 10:59 | 24.87154 | 46.48190 | 40001 ft | 397 kts | 236° |
| 2026-05-08 10:59 | 24.84167 | 46.43075 | 40005 ft | 397 kts | 236° |
| 2026-05-08 11:00 | 24.81173 | 46.37953 | 40008 ft | 396 kts | 236° |
| 2026-05-08 11:00 | 24.78174 | 46.32829 | 40022 ft | 402 kts | 236° |
| 2026-05-08 11:01 | 24.75122 | 46.27616 | 40015 ft | 406 kts | 236° |
| 2026-05-08 11:01 | 24.72060 | 46.22388 | 40012 ft | 406 kts | 236° |
| 2026-05-08 11:02 | 24.67457 | 46.14545 | 40008 ft | 406 kts | 236° |
| 2026-05-08 11:03 | 24.64389 | 46.09324 | 40006 ft | 406 kts | 236° |
| 2026-05-08 11:03 | 24.61839 | 46.04989 | 40005 ft | 406 kts | 236° |
| 2026-05-08 11:04 | 24.58771 | 45.99779 | 40001 ft | 406 kts | 236° |
| 2026-05-08 11:04 | 24.55702 | 45.94572 | 40006 ft | 405 kts | 236° |
| 2026-05-08 11:05 | 24.52649 | 45.89400 | 39993 ft | 398 kts | 236° |
| 2026-05-08 11:05 | 24.49663 | 45.84346 | 39999 ft | 393 kts | 236° |
| 2026-05-08 11:06 | 24.46705 | 45.79308 | 40002 ft | 392 kts | 237° |
| 2026-05-08 11:06 | 24.44045 | 45.74068 | 39999 ft | 393 kts | 241° |
| 2026-05-08 11:07 | 24.41628 | 45.68660 | 40001 ft | 393 kts | 241° |
| 2026-05-08 11:07 | 24.39220 | 45.63272 | 40001 ft | 393 kts | 242° |
| 2026-05-08 11:08 | 24.36814 | 45.57879 | 40001 ft | 393 kts | 242° |
| 2026-05-08 11:08 | 24.34411 | 45.52485 | 40004 ft | 393 kts | 241° |
| 2026-05-08 11:09 | 24.32005 | 45.47094 | 40003 ft | 393 kts | 241° |
| 2026-05-08 11:09 | 24.29598 | 45.41706 | 40004 ft | 393 kts | 241° |
| 2026-05-08 11:10 | 24.27190 | 45.36317 | 40010 ft | 393 kts | 241° |
| 2026-05-08 11:10 | 24.24777 | 45.30931 | 40010 ft | 393 kts | 241° |
| 2026-05-08 11:11 | 24.22364 | 45.25548 | 40012 ft | 393 kts | 241° |
| 2026-05-08 11:11 | 24.19949 | 45.20165 | 40003 ft | 393 kts | 241° |
| 2026-05-08 11:12 | 24.17524 | 45.14770 | 40018 ft | 395 kts | 241° |
| 2026-05-08 11:12 | 24.15089 | 45.09363 | 40022 ft | 395 kts | 240° |
| 2026-05-08 11:13 | 24.12653 | 45.03961 | 40020 ft | 395 kts | 240° |
| 2026-05-08 11:13 | 24.10218 | 44.98565 | 40046 ft | 395 kts | 241° |
| 2026-05-08 11:14 | 24.07788 | 44.93181 | 40032 ft | 394 kts | 240° |
| 2026-05-08 11:14 | 24.05357 | 44.87807 | 40029 ft | 394 kts | 240° |
| 2026-05-08 11:15 | 24.02925 | 44.82432 | 40028 ft | 394 kts | 240° |
| 2026-05-08 11:15 | 24.00493 | 44.77062 | 40028 ft | 393 kts | 240° |
| 2026-05-08 11:16 | 23.98056 | 44.71691 | 40018 ft | 395 kts | 240° |
| 2026-05-08 11:16 | 23.95612 | 44.66300 | 40028 ft | 396 kts | 241° |
| 2026-05-08 11:17 | 23.93435 | 44.60754 | 40044 ft | 397 kts | 245° |
| 2026-05-08 11:17 | 23.91699 | 44.55009 | 40026 ft | 398 kts | 250° |
| 2026-05-08 11:18 | 23.90369 | 44.49148 | 40028 ft | 400 kts | 251° |
| 2026-05-08 11:18 | 23.89089 | 44.43231 | 40026 ft | 400 kts | 252° |
| 2026-05-08 11:19 | 23.87810 | 44.37277 | 40025 ft | 399 kts | 252° |
| 2026-05-08 11:19 | 23.86553 | 44.31413 | 40017 ft | 398 kts | 252° |
| 2026-05-08 11:20 | 23.85287 | 44.25512 | 40017 ft | 398 kts | 252° |
| 2026-05-08 11:20 | 23.84022 | 44.19616 | 40025 ft | 397 kts | 252° |
| 2026-05-08 11:21 | 23.82759 | 44.13743 | 40009 ft | 396 kts | 252° |
| 2026-05-08 11:21 | 23.81494 | 44.07873 | 40010 ft | 396 kts | 252° |
| 2026-05-08 11:22 | 23.80228 | 44.02006 | 40025 ft | 396 kts | 251° |
| 2026-05-08 11:22 | 23.78957 | 43.96135 | 40008 ft | 397 kts | 252° |
| 2026-05-08 11:23 | 23.77683 | 43.90254 | 40020 ft | 398 kts | 252° |
| 2026-05-08 11:23 | 23.76398 | 43.84371 | 40010 ft | 398 kts | 251° |
| 2026-05-08 11:24 | 23.75110 | 43.78493 | 40023 ft | 397 kts | 251° |
| 2026-05-08 11:24 | 23.73816 | 43.72615 | 40031 ft | 397 kts | 251° |
| 2026-05-08 11:25 | 23.72523 | 43.66742 | 40031 ft | 397 kts | 251° |
| 2026-05-08 11:25 | 23.71230 | 43.60871 | 40015 ft | 397 kts | 251° |
| 2026-05-08 11:26 | 23.69927 | 43.54992 | 40039 ft | 398 kts | 251° |
| 2026-05-08 11:26 | 23.68627 | 43.49113 | 40044 ft | 398 kts | 251° |
| 2026-05-08 11:27 | 23.67324 | 43.43234 | 40041 ft | 398 kts | 251° |
| 2026-05-08 11:27 | 23.66020 | 43.37354 | 40058 ft | 399 kts | 251° |
| 2026-05-08 11:28 | 23.64710 | 43.31476 | 40053 ft | 398 kts | 251° |
| 2026-05-08 11:28 | 23.63399 | 43.25598 | 40067 ft | 398 kts | 251° |
| 2026-05-08 11:29 | 23.62088 | 43.19717 | 40057 ft | 399 kts | 251° |
| 2026-05-08 11:29 | 23.60764 | 43.13822 | 40062 ft | 400 kts | 251° |
| 2026-05-08 11:30 | 23.59441 | 43.07922 | 40074 ft | 400 kts | 251° |
| 2026-05-08 11:30 | 23.58126 | 43.02066 | 40092 ft | 400 kts | 251° |
| 2026-05-08 11:31 | 23.56803 | 42.96175 | 40084 ft | 400 kts | 250° |
| 2026-05-08 11:31 | 23.55470 | 42.90273 | 40081 ft | 400 kts | 250° |
| 2026-05-08 11:32 | 23.54138 | 42.84374 | 40076 ft | 400 kts | 250° |
| 2026-05-08 11:32 | 23.52802 | 42.78474 | 40077 ft | 400 kts | 250° |
| 2026-05-08 11:33 | 23.51464 | 42.72580 | 40080 ft | 400 kts | 250° |
| 2026-05-08 11:33 | 23.50124 | 42.66687 | 40079 ft | 400 kts | 250° |
| 2026-05-08 11:34 | 23.48783 | 42.60795 | 40094 ft | 400 kts | 250° |
| 2026-05-08 11:34 | 23.47442 | 42.54908 | 40076 ft | 399 kts | 250° |
| 2026-05-08 11:35 | 23.46100 | 42.49034 | 40077 ft | 399 kts | 250° |
| 2026-05-08 11:35 | 23.44756 | 42.43161 | 40077 ft | 399 kts | 250° |
| 2026-05-08 11:36 | 23.43410 | 42.37285 | 40085 ft | 399 kts | 250° |
| 2026-05-08 11:36 | 23.42059 | 42.31407 | 40068 ft | 400 kts | 250° |
| 2026-05-08 11:37 | 23.40706 | 42.25523 | 40082 ft | 400 kts | 250° |
| 2026-05-08 11:37 | 23.39350 | 42.19641 | 40077 ft | 400 kts | 250° |
| 2026-05-08 11:38 | 23.37992 | 42.13756 | 40076 ft | 400 kts | 250° |
| 2026-05-08 11:38 | 23.36631 | 42.07872 | 40067 ft | 401 kts | 250° |
| 2026-05-08 11:39 | 23.35267 | 42.01983 | 40080 ft | 401 kts | 250° |
| 2026-05-08 11:39 | 23.33902 | 41.96104 | 40082 ft | 401 kts | 250° |
| 2026-05-08 11:40 | 23.32535 | 41.90215 | 40065 ft | 401 kts | 250° |
| 2026-05-08 11:40 | 23.31164 | 41.84333 | 40063 ft | 401 kts | 250° |
| 2026-05-08 11:41 | 23.29650 | 41.78491 | 40064 ft | 398 kts | 246° |
| 2026-05-08 11:41 | 23.27698 | 41.72868 | 40062 ft | 396 kts | 242° |
| 2026-05-08 11:42 | 23.25321 | 41.67479 | 40063 ft | 394 kts | 238° |
| 2026-05-08 11:42 | 23.22539 | 41.62359 | 40058 ft | 392 kts | 234° |
| 2026-05-08 11:43 | 23.19608 | 41.57351 | 40039 ft | 392 kts | 234° |
| 2026-05-08 11:43 | 23.16665 | 41.52347 | 40062 ft | 393 kts | 234° |
| 2026-05-08 11:44 | 23.13713 | 41.47345 | 40057 ft | 393 kts | 234° |
| 2026-05-08 11:44 | 23.10756 | 41.42346 | 40057 ft | 393 kts | 234° |
| 2026-05-08 11:45 | 23.07796 | 41.37351 | 40056 ft | 393 kts | 234° |
| 2026-05-08 11:45 | 23.04833 | 41.32358 | 40041 ft | 393 kts | 234° |
| 2026-05-08 11:46 | 23.01882 | 41.27389 | 40045 ft | 394 kts | 234° |
| 2026-05-08 11:46 | 22.98907 | 41.22386 | 40043 ft | 394 kts | 234° |
| 2026-05-08 11:47 | 22.95932 | 41.17385 | 40048 ft | 394 kts | 234° |
| 2026-05-08 11:47 | 22.92954 | 41.12386 | 40060 ft | 394 kts | 234° |
| 2026-05-08 11:48 | 22.89972 | 41.07385 | 40045 ft | 394 kts | 234° |
| 2026-05-08 11:48 | 22.86990 | 41.02388 | 40025 ft | 395 kts | 234° |
| 2026-05-08 11:49 | 22.84001 | 40.97390 | 40021 ft | 395 kts | 234° |
| 2026-05-08 11:49 | 22.81512 | 40.93239 | 40028 ft | 395 kts | 234° |
| 2026-05-08 11:50 | 22.78516 | 40.88246 | 40035 ft | 395 kts | 234° |
| 2026-05-08 11:50 | 22.75519 | 40.83251 | 40039 ft | 395 kts | 234° |
| 2026-05-08 11:51 | 22.72523 | 40.78261 | 40006 ft | 395 kts | 234° |
| 2026-05-08 11:51 | 22.69513 | 40.73253 | 40017 ft | 395 kts | 234° |
| 2026-05-08 11:52 | 22.66509 | 40.68261 | 40000 ft | 396 kts | 234° |
| 2026-05-08 11:52 | 22.65006 | 40.65764 | 39751 ft | 395 kts | 234° |
| 2026-05-08 11:52 | 22.63517 | 40.63290 | 39515 ft | 392 kts | 234° |
| 2026-05-08 11:52 | 22.62030 | 40.60823 | 39281 ft | 389 kts | 234° |
| 2026-05-08 11:53 | 22.60555 | 40.58376 | 39040 ft | 386 kts | 234° |
| 2026-05-08 11:53 | 22.59089 | 40.55944 | 38836 ft | 384 kts | 234° |
| 2026-05-08 11:53 | 22.57627 | 40.53522 | 38581 ft | 384 kts | 234° |
| 2026-05-08 11:53 | 22.56165 | 40.51102 | 38286 ft | 384 kts | 234° |
| 2026-05-08 11:54 | 22.54697 | 40.48671 | 37946 ft | 386 kts | 234° |
| 2026-05-08 11:54 | 22.53221 | 40.46234 | 37379 ft | 388 kts | 234° |
| 2026-05-08 11:54 | 22.51732 | 40.43775 | 36605 ft | 393 kts | 234° |
| 2026-05-08 11:54 | 22.50221 | 40.41281 | 35659 ft | 400 kts | 235° |
| 2026-05-08 11:55 | 22.48678 | 40.38733 | 34831 ft | 407 kts | 235° |
| 2026-05-08 11:55 | 22.47115 | 40.36153 | 33900 ft | 414 kts | 235° |
| 2026-05-08 11:55 | 22.45535 | 40.33553 | 32889 ft | 422 kts | 236° |
| 2026-05-08 11:55 | 22.43918 | 40.30892 | 32059 ft | 425 kts | 236° |
| 2026-05-08 11:56 | 22.42283 | 40.28200 | 31182 ft | 430 kts | 237° |
| 2026-05-08 11:56 | 22.40635 | 40.25487 | 30433 ft | 432 kts | 238° |
| 2026-05-08 11:56 | 22.38981 | 40.22762 | 29597 ft | 434 kts | 238° |
| 2026-05-08 11:56 | 22.37324 | 40.20026 | 28737 ft | 435 kts | 238° |
| 2026-05-08 11:57 | 22.35656 | 40.17276 | 27747 ft | 439 kts | 238° |
| 2026-05-08 11:57 | 22.33979 | 40.14514 | 27037 ft | 438 kts | 238° |
| 2026-05-08 11:57 | 22.32303 | 40.11757 | 26444 ft | 433 kts | 239° |
| 2026-05-08 11:57 | 22.30655 | 40.09046 | 25812 ft | 430 kts | 239° |
| 2026-05-08 11:58 | 22.29014 | 40.06350 | 25168 ft | 428 kts | 239° |
| 2026-05-08 11:58 | 22.27380 | 40.03666 | 24542 ft | 426 kts | 239° |
| 2026-05-08 11:58 | 22.25753 | 40.00999 | 23905 ft | 424 kts | 239° |
| 2026-05-08 11:59 | 22.22517 | 39.95685 | 22502 ft | 421 kts | 239° |
| 2026-05-08 11:59 | 22.20913 | 39.93061 | 21778 ft | 414 kts | 239° |
| 2026-05-08 11:59 | 22.19337 | 39.90481 | 20550 ft | 410 kts | 238° |
| 2026-05-08 11:59 | 22.17780 | 39.87933 | 20068 ft | 401 kts | 238° |
| 2026-05-08 12:00 | 22.16252 | 39.85442 | 19532 ft | 397 kts | 238° |
| 2026-05-08 12:00 | 22.14730 | 39.82952 | 18827 ft | 397 kts | 237° |
| 2026-05-08 12:00 | 22.13216 | 39.80474 | 18325 ft | 392 kts | 236° |
| 2026-05-08 12:00 | 22.11717 | 39.78029 | 17702 ft | 389 kts | 237° |
| 2026-05-08 12:01 | 22.10227 | 39.75597 | 17026 ft | 387 kts | 237° |
| 2026-05-08 12:01 | 22.08745 | 39.73176 | 16402 ft | 385 kts | 237° |
| 2026-05-08 12:01 | 22.07273 | 39.70771 | 15798 ft | 383 kts | 237° |
| 2026-05-08 12:01 | 22.05805 | 39.68377 | 15193 ft | 381 kts | 237° |
| 2026-05-08 12:02 | 22.04345 | 39.65997 | 14617 ft | 379 kts | 237° |
| 2026-05-08 12:02 | 22.02892 | 39.63633 | 14070 ft | 376 kts | 237° |
| 2026-05-08 12:02 | 22.01451 | 39.61290 | 13522 ft | 374 kts | 237° |
| 2026-05-08 12:02 | 22.00020 | 39.58959 | 12899 ft | 372 kts | 236° |
| 2026-05-08 12:03 | 21.98597 | 39.56639 | 12300 ft | 370 kts | 236° |
| 2026-05-08 12:03 | 21.97183 | 39.54340 | 11760 ft | 366 kts | 236° |
| 2026-05-08 12:03 | 21.95784 | 39.52067 | 11223 ft | 362 kts | 236° |
| 2026-05-08 12:03 | 21.94439 | 39.49770 | 10602 ft | 362 kts | 239° |
| 2026-05-08 12:04 | 21.93283 | 39.47369 | 10132 ft | 355 kts | 243° |
| 2026-05-08 12:04 | 21.92232 | 39.45021 | 9496 ft | 340 kts | 243° |